createdAt,value
2018-12-06T00:00:06.246Z,36.30
2018-12-06T00:02:35.470Z,30.03
2018-12-06T00:05:04.949Z,25.70
2018-12-06T00:07:33.747Z,26.17
2018-12-06T00:10:03.932Z,23.93
2018-12-06T00:12:32.896Z,31.70
2018-12-06T00:15:12.636Z,27.77
2018-12-06T00:17:42.839Z,25.20
2018-12-06T00:20:11.628Z,32.50
2018-12-06T00:22:40.394Z,29.47
2018-12-06T00:27:52.598Z,29.43
2018-12-06T00:30:59.694Z,28.07
2018-12-06T00:33:32.172Z,24.80
2018-12-06T00:36:00.999Z,26.23
2018-12-06T00:38:30.196Z,28.10
2018-12-06T00:41:02.385Z,31.13
2018-12-06T00:43:31.161Z,28.47
2018-12-06T00:46:03.541Z,31.53
2018-12-06T00:48:32.317Z,27.37
2018-12-06T00:51:05.899Z,26.10
2018-12-06T00:53:35.215Z,27.33
2018-12-06T00:56:04.862Z,25.53
2018-12-06T00:58:33.673Z,29.13
2018-12-06T01:01:02.601Z,27.77
2018-12-06T01:03:31.400Z,30.00
2018-12-06T01:06:00.639Z,27.33
2018-12-06T01:08:29.452Z,24.63
2018-12-06T01:11:03.761Z,27.90
2018-12-06T01:13:33.034Z,27.63
2018-12-06T01:16:02.509Z,36.53
2018-12-06T01:18:31.274Z,31.00
2018-12-06T01:21:00.508Z,29.27
2018-12-06T01:23:29.285Z,41.87
2018-12-06T01:25:58.040Z,29.40
2018-12-06T01:28:27.264Z,29.90
2018-12-06T01:30:56.062Z,29.57
2018-12-06T01:33:24.830Z,29.37
2018-12-06T01:38:33.623Z,29.10
2018-12-06T01:41:02.746Z,29.23
2018-12-06T01:46:11.401Z,32.23
2018-12-06T01:51:20.187Z,29.77
2018-12-06T01:53:49.411Z,29.83
2018-12-06T01:56:27.620Z,34.23
2018-12-06T01:58:56.484Z,26.27
2018-12-06T02:01:25.227Z,30.63
2018-12-06T02:03:54.029Z,25.63
2018-12-06T02:06:23.295Z,33.63
2018-12-06T02:08:52.047Z,27.60
2018-12-06T02:11:21.034Z,31.33
2018-12-06T02:13:56.146Z,37.17
2018-12-06T02:16:24.936Z,31.80
2018-12-06T02:18:53.777Z,34.43
2018-12-06T02:21:22.981Z,37.10
2018-12-06T02:23:51.863Z,31.30
2018-12-06T02:26:20.859Z,30.83
2018-12-06T02:28:50.355Z,32.97
2018-12-06T02:31:19.128Z,33.93
2018-12-06T02:33:53.583Z,30.80
2018-12-06T02:36:22.375Z,31.37
2018-12-06T02:38:51.241Z,29.07
2018-12-06T02:41:20.371Z,32.50
2018-12-06T02:43:49.165Z,28.20
2018-12-06T02:46:18.382Z,31.03
2018-12-06T02:48:47.571Z,31.80
2018-12-06T02:51:16.341Z,34.20
2018-12-06T02:53:48.064Z,31.43
2018-12-06T02:56:17.397Z,28.80
2018-12-06T02:58:51.958Z,29.67
2018-12-06T03:01:20.690Z,26.00
2018-12-06T03:03:49.483Z,30.90
2018-12-06T03:06:18.295Z,26.67
2018-12-06T03:08:52.334Z,24.47
2018-12-06T03:11:21.100Z,24.67
2018-12-06T03:13:49.904Z,30.50
2018-12-06T03:16:18.710Z,24.00
2018-12-06T03:18:47.539Z,29.07
2018-12-06T03:21:16.675Z,29.10
2018-12-06T03:23:45.455Z,28.60
2018-12-06T03:26:14.260Z,25.97
2018-12-06T03:28:43.602Z,28.87
2018-12-06T03:31:12.371Z,26.50
2018-12-06T03:33:41.161Z,27.93
2018-12-06T03:36:11.055Z,40.43
2018-12-06T03:38:44.358Z,23.83
2018-12-06T03:41:13.146Z,25.27
2018-12-06T03:43:42.304Z,29.87
2018-12-06T03:46:11.128Z,27.77
2018-12-06T03:48:39.976Z,27.93
2018-12-06T03:51:09.174Z,29.10
2018-12-06T03:53:38.022Z,34.33
2018-12-06T03:56:06.840Z,32.00
2018-12-06T03:58:36.046Z,34.60
2018-12-06T04:01:09.741Z,40.03
2018-12-06T04:03:38.557Z,28.63
2018-12-06T04:06:07.349Z,31.13
2018-12-06T04:08:36.200Z,36.77
2018-12-06T04:11:05.464Z,28.20
2018-12-06T04:13:35.488Z,34.20
2018-12-06T04:16:05.535Z,31.17
2018-12-06T04:18:34.800Z,33.73
2018-12-06T04:21:03.621Z,34.23
2018-12-06T04:23:32.437Z,32.10
2018-12-06T04:26:03.490Z,32.90
2018-12-06T04:28:32.307Z,45.63
2018-12-06T04:31:01.105Z,35.80
2018-12-06T04:33:31.423Z,34.23
2018-12-06T04:36:00.279Z,36.40
2018-12-06T04:38:32.578Z,32.07
2018-12-06T04:41:02.760Z,33.47
2018-12-06T04:43:31.520Z,35.20
2018-12-06T04:46:00.312Z,40.17
2018-12-06T04:48:29.638Z,37.83
2018-12-06T04:51:02.120Z,35.10
2018-12-06T04:53:30.895Z,31.83
2018-12-06T04:56:00.804Z,39.20
2018-12-06T04:58:29.613Z,32.90
2018-12-06T05:00:58.456Z,35.23
2018-12-06T05:03:27.522Z,35.47
2018-12-06T05:05:56.412Z,35.67
2018-12-06T05:08:25.276Z,36.93
2018-12-06T05:10:55.233Z,39.90
2018-12-06T05:13:24.142Z,36.80
2018-12-06T05:15:52.980Z,38.13
2018-12-06T05:18:22.106Z,37.43
2018-12-06T05:20:50.863Z,36.67
2018-12-06T05:23:19.636Z,38.73
2018-12-06T05:28:28.155Z,35.77
2018-12-06T05:30:57.076Z,39.73
2018-12-06T05:33:27.164Z,35.73
2018-12-06T05:35:55.945Z,35.60
2018-12-06T05:38:30.333Z,42.50
2018-12-06T05:40:59.843Z,43.33
2018-12-06T05:43:28.604Z,39.13
2018-12-06T05:48:33.167Z,36.77
2018-12-06T05:51:02.092Z,33.90
2018-12-06T05:53:30.895Z,38.87
2018-12-06T05:56:00.859Z,35.77
2018-12-06T05:58:30.058Z,39.93
2018-12-06T06:01:00.537Z,38.07
2018-12-06T06:03:29.338Z,37.03
2018-12-06T06:06:04.864Z,37.30
2018-12-06T06:11:32.754Z,39.30
2018-12-06T06:14:01.729Z,39.40
2018-12-06T06:16:32.225Z,41.90
2018-12-06T06:19:01.083Z,43.10
2018-12-06T06:21:29.871Z,36.70
2018-12-06T06:23:59.025Z,41.47
2018-12-06T06:26:27.856Z,42.17
2018-12-06T06:28:56.671Z,36.60
2018-12-06T06:31:27.262Z,38.70
2018-12-06T06:33:56.081Z,39.07
2018-12-06T06:36:28.027Z,42.73
2018-12-06T06:38:57.314Z,43.03
2018-12-06T06:41:26.106Z,44.30
2018-12-06T06:43:54.883Z,44.43
2018-12-06T06:46:26.093Z,41.60
2018-12-06T06:48:54.912Z,41.13
2018-12-06T06:51:23.725Z,37.13
2018-12-06T06:53:52.890Z,67.13
2018-12-06T06:56:22.002Z,44.93
2018-12-06T06:58:50.830Z,44.07
2018-12-06T07:01:20.392Z,46.80
2018-12-06T07:04:00.231Z,50.63
2018-12-06T07:06:29.520Z,43.43
2018-12-06T07:08:58.357Z,46.03
2018-12-06T07:11:27.488Z,45.37
2018-12-06T07:13:56.667Z,46.90
2018-12-06T07:16:25.479Z,37.53
2018-12-06T07:18:54.396Z,42.87
2018-12-06T07:21:36.734Z,45.37
2018-12-06T07:24:06.668Z,55.83
2018-12-06T07:26:35.795Z,53.90
2018-12-06T07:29:05.384Z,39.67
2018-12-06T07:31:34.276Z,40.03
2018-12-06T07:34:04.185Z,49.27
2018-12-06T07:36:41.777Z,39.73
2018-12-06T07:39:10.581Z,40.97
2018-12-06T07:41:39.402Z,38.13
2018-12-06T07:44:08.502Z,42.07
2018-12-06T07:46:43.549Z,40.93
2018-12-06T07:49:12.383Z,36.27
2018-12-06T07:51:41.568Z,36.03
2018-12-06T07:54:10.491Z,35.47
2018-12-06T07:56:39.397Z,31.70
2018-12-06T07:59:08.672Z,33.53
2018-12-06T08:01:37.668Z,37.23
2018-12-06T08:04:06.711Z,42.53
2018-12-06T08:06:37.028Z,36.80
2018-12-06T08:09:12.853Z,36.27
2018-12-06T08:14:10.290Z,65.00
2018-12-06T08:16:39.157Z,31.23
2018-12-06T08:19:07.992Z,46.33
2018-12-06T08:21:37.219Z,36.63
2018-12-06T08:24:09.574Z,26.70
2018-12-06T08:26:43.345Z,27.63
2018-12-06T08:29:18.549Z,28.63
2018-12-06T08:31:47.553Z,28.33
2018-12-06T08:34:21.507Z,35.00
2018-12-06T08:36:51.716Z,25.83
2018-12-06T08:39:21.489Z,23.60
2018-12-06T08:41:50.308Z,27.23
2018-12-06T08:44:21.508Z,28.10
2018-12-06T08:46:50.259Z,26.87
2018-12-06T08:49:19.156Z,23.80
2018-12-06T08:51:48.314Z,22.30
2018-12-06T08:54:17.164Z,21.93
2018-12-06T08:56:46.111Z,23.70
2018-12-06T08:59:18.909Z,23.73
2018-12-06T09:01:47.785Z,21.77
2018-12-06T09:04:20.750Z,21.13
2018-12-06T09:06:50.287Z,20.37
2018-12-06T09:09:19.127Z,20.07
2018-12-06T09:11:48.332Z,19.90
2018-12-06T09:14:17.519Z,21.10
2018-12-06T09:16:46.447Z,26.47
2018-12-06T09:19:15.568Z,24.50
2018-12-06T09:21:44.399Z,21.80
2018-12-06T09:24:18.441Z,19.37
2018-12-06T09:26:47.814Z,18.63
2018-12-06T09:29:22.176Z,17.00
2018-12-06T09:31:56.648Z,17.73
2018-12-06T09:34:25.582Z,14.67
2018-12-06T09:36:54.421Z,17.43
2018-12-06T09:42:04.252Z,17.80
2018-12-06T09:44:39.239Z,17.33
2018-12-06T09:47:08.084Z,15.10
2018-12-06T09:49:36.914Z,27.57
2018-12-06T09:52:06.116Z,18.37
2018-12-06T09:54:34.951Z,17.90
2018-12-06T09:57:03.827Z,19.50
2018-12-06T09:59:39.240Z,13.93
2018-12-06T10:04:43.574Z,17.50
2018-12-06T10:07:18.643Z,16.07
2018-12-06T10:09:47.474Z,15.53
2018-12-06T10:12:22.096Z,18.33
2018-12-06T10:14:53.276Z,18.17
2018-12-06T10:17:22.712Z,18.33
2018-12-06T10:19:51.538Z,26.77
2018-12-06T10:22:22.583Z,30.53
2018-12-06T10:24:51.859Z,46.93
2018-12-06T10:27:25.647Z,46.37
2018-12-06T10:29:54.491Z,49.60
2018-12-06T10:32:23.750Z,51.57
2018-12-06T10:34:57.136Z,44.90
2018-12-06T10:37:25.958Z,55.93
2018-12-06T10:39:55.125Z,51.77
2018-12-06T10:42:24.054Z,50.50
2018-12-06T10:44:58.981Z,39.03
2018-12-06T10:47:28.126Z,52.40
2018-12-06T10:49:56.946Z,50.27
2018-12-06T10:52:26.676Z,51.63
2018-12-06T10:54:55.857Z,54.27
2018-12-06T10:57:28.092Z,53.00
2018-12-06T10:59:56.930Z,49.70
2018-12-06T11:02:30.760Z,57.37
2018-12-06T11:04:59.678Z,55.13
2018-12-06T11:07:28.500Z,45.70
2018-12-06T11:10:00.641Z,47.77
2018-12-06T11:12:29.443Z,50.70
2018-12-06T11:15:00.070Z,34.43
2018-12-06T11:17:29.339Z,25.73
2018-12-06T11:19:58.189Z,21.57
2018-12-06T11:22:27.077Z,17.63
2018-12-06T11:24:56.503Z,18.67
2018-12-06T11:27:25.382Z,17.63
2018-12-06T11:29:54.361Z,19.40
2018-12-06T11:32:23.537Z,17.87
2018-12-06T11:34:57.450Z,19.23
2018-12-06T11:37:26.585Z,13.00
2018-12-06T11:39:55.504Z,12.80
2018-12-06T11:42:24.428Z,13.37
2018-12-06T11:44:53.874Z,12.77
2018-12-06T11:47:22.731Z,15.37
2018-12-06T11:49:51.581Z,13.33
2018-12-06T11:52:20.885Z,12.27
2018-12-06T11:54:55.220Z,15.17
2018-12-06T11:57:24.080Z,11.30
2018-12-06T11:59:53.002Z,11.90
2018-12-06T12:02:21.917Z,12.30
2018-12-06T12:07:33.144Z,11.10
2018-12-06T12:10:04.061Z,12.53
2018-12-06T12:12:33.364Z,13.20
2018-12-06T12:15:08.149Z,12.33
2018-12-06T12:17:37.000Z,16.07
2018-12-06T12:20:07.870Z,10.90
2018-12-06T12:22:36.709Z,11.47
2018-12-06T12:25:06.145Z,10.70
2018-12-06T12:27:35.057Z,14.47
2018-12-06T12:30:06.343Z,10.60
2018-12-06T12:32:38.403Z,13.30
2018-12-06T12:35:07.449Z,10.47
2018-12-06T12:37:36.429Z,10.30
2018-12-06T12:40:09.487Z,15.27
2018-12-06T12:45:00.809Z,33.17
2018-12-06T12:47:30.070Z,32.53
2018-12-06T12:49:58.939Z,27.87
2018-12-06T12:52:27.763Z,30.17
2018-12-06T12:54:56.981Z,33.30
2018-12-06T12:57:25.869Z,47.13
2018-12-06T12:59:54.765Z,36.07
2018-12-06T13:02:23.903Z,38.63
2018-12-06T13:04:52.884Z,44.27
2018-12-06T13:07:21.787Z,34.93
2018-12-06T13:09:50.602Z,35.10
2018-12-06T13:12:19.435Z,32.23
2018-12-06T13:14:48.541Z,37.77
2018-12-06T13:17:17.568Z,39.27
2018-12-06T13:19:46.450Z,50.83
2018-12-06T13:22:15.448Z,37.60
2018-12-06T13:24:49.645Z,45.43
2018-12-06T13:27:18.828Z,51.37
2018-12-06T13:29:47.675Z,42.13
2018-12-06T13:32:16.676Z,42.17
2018-12-06T13:34:45.556Z,52.30
2018-12-06T13:37:25.481Z,46.63
2018-12-06T13:39:54.619Z,47.23
2018-12-06T13:42:23.939Z,35.77
2018-12-06T13:44:52.904Z,38.43
2018-12-06T13:47:22.192Z,34.63
2018-12-06T13:49:51.035Z,43.20
2018-12-06T13:52:34.328Z,35.57
2018-12-06T13:55:03.748Z,27.20
2018-12-06T13:57:32.710Z,34.17
2018-12-06T14:00:03.146Z,30.27
2018-12-06T14:02:33.898Z,58.60
2018-12-06T14:05:03.129Z,41.93
2018-12-06T14:07:32.156Z,45.03
2018-12-06T14:10:02.635Z,52.80
2018-12-06T14:12:31.548Z,53.70
2018-12-06T14:15:00.548Z,40.63
2018-12-06T14:17:30.003Z,27.03
2018-12-06T14:19:58.853Z,26.67
2018-12-06T14:22:27.768Z,25.33
2018-12-06T14:24:57.028Z,22.63
2018-12-06T14:27:25.830Z,27.20
2018-12-06T14:29:54.677Z,29.20
2018-12-06T14:32:23.828Z,21.37
2018-12-06T14:34:52.719Z,15.33
2018-12-06T14:37:21.647Z,16.20
2018-12-06T14:39:51.952Z,11.47
2018-12-06T14:42:21.552Z,14.20
2018-12-06T14:44:50.539Z,9.60
2018-12-06T14:47:19.714Z,172.30
2018-12-06T14:49:51.587Z,108.00
2018-12-06T14:52:20.420Z,26.33
2018-12-06T14:54:52.882Z,29.97
2018-12-06T14:57:22.307Z,32.93
2018-12-06T14:59:51.152Z,28.77
2018-12-06T15:02:20.407Z,33.30
2018-12-06T15:04:49.285Z,36.23
2018-12-06T15:07:18.252Z,36.27
2018-12-06T15:09:53.035Z,25.87
2018-12-06T15:12:21.933Z,16.57
2018-12-06T15:14:50.892Z,14.80
2018-12-06T15:17:20.054Z,16.80
2018-12-06T15:19:48.927Z,15.13
2018-12-06T15:22:17.842Z,16.40
2018-12-06T15:24:46.987Z,13.83
2018-12-06T15:27:22.967Z,11.17
2018-12-06T15:29:51.938Z,11.93
2018-12-06T15:32:20.767Z,8.93
2018-12-06T15:34:53.394Z,13.80
2018-12-06T15:37:22.234Z,12.57
2018-12-06T15:39:56.266Z,17.57
2018-12-06T15:42:31.437Z,9.40
2018-12-06T15:45:01.011Z,15.43
2018-12-06T15:47:33.912Z,8.00
2018-12-06T15:50:04.349Z,9.00
2018-12-06T15:52:33.188Z,13.43
2018-12-06T15:55:04.417Z,9.17
2018-12-06T15:57:33.798Z,13.30
2018-12-06T16:00:04.305Z,8.33
2018-12-06T16:02:33.252Z,14.13
2018-12-06T16:05:02.523Z,18.70
2018-12-06T16:07:32.277Z,7.73
2018-12-06T16:10:02.858Z,7.13
2018-12-06T16:12:32.109Z,8.38
2018-12-06T16:15:02.119Z,17.40
2018-12-06T16:17:31.259Z,14.07
2018-12-06T16:20:07.675Z,8.30
2018-12-06T16:22:36.677Z,8.33
2018-12-06T16:25:07.584Z,7.30
2018-12-06T16:27:36.511Z,11.50
2018-12-06T16:30:09.640Z,18.73
2018-12-06T16:32:38.898Z,11.43
2018-12-06T16:35:09.132Z,13.07
2018-12-06T16:37:37.965Z,8.10
2018-12-06T16:40:07.400Z,10.87
2018-12-06T16:42:36.607Z,8.73
2018-12-06T16:45:17.062Z,10.17
2018-12-06T16:47:46.519Z,12.43
2018-12-06T16:50:15.937Z,11.50
2018-12-06T16:52:44.834Z,13.73
2018-12-06T16:55:14.140Z,10.70
2018-12-06T16:57:44.002Z,11.90
2018-12-06T17:00:14.849Z,12.00
2018-12-06T17:02:47.537Z,13.33
2018-12-06T17:05:16.760Z,7.77
2018-12-06T17:07:46.129Z,12.47
2018-12-06T17:10:19.811Z,10.27
2018-12-06T17:12:49.147Z,6.33
2018-12-06T17:15:22.168Z,10.20
2018-12-06T17:17:51.562Z,8.83
2018-12-06T17:20:20.934Z,8.80
2018-12-06T17:22:55.254Z,8.70
2018-12-06T17:25:24.786Z,8.53
2018-12-06T17:27:54.296Z,9.27
2018-12-06T17:30:23.681Z,9.23
2018-12-06T17:32:53.085Z,13.13
2018-12-06T17:35:22.882Z,7.43
2018-12-06T17:37:52.192Z,5.27
2018-12-06T17:40:21.626Z,5.70
2018-12-06T17:42:50.953Z,6.57
2018-12-06T17:45:20.370Z,8.33
2018-12-06T17:47:54.614Z,28.80
2018-12-06T17:50:24.362Z,4.73
2018-12-06T17:52:55.940Z,5.43
2018-12-06T17:55:25.272Z,5.30
2018-12-06T17:57:56.738Z,5.43
2018-12-06T18:00:26.241Z,5.27
2018-12-06T18:02:55.343Z,5.20
2018-12-06T18:05:25.034Z,5.23
2018-12-06T18:07:54.522Z,4.93
2018-12-06T18:10:24.355Z,7.93
2018-12-06T18:12:54.107Z,11.77
2018-12-06T18:15:23.707Z,5.83
2018-12-06T18:17:53.343Z,6.93
2018-12-06T18:20:22.940Z,4.90
2018-12-06T18:22:53.040Z,4.27
2018-12-06T18:25:22.475Z,8.50
2018-12-06T18:27:55.914Z,4.97
2018-12-06T18:30:25.395Z,5.13
2018-12-06T18:32:54.853Z,10.10
2018-12-06T18:35:24.630Z,5.77
2018-12-06T18:37:54.142Z,5.83
2018-12-06T18:40:24.045Z,7.20
2018-12-06T18:42:53.548Z,10.70
2018-12-06T18:45:23.127Z,10.50
2018-12-06T18:47:52.879Z,8.03
2018-12-06T18:50:22.311Z,6.30
2018-12-06T18:52:52.219Z,5.30
2018-12-06T18:55:21.994Z,5.60
2018-12-06T18:57:51.536Z,6.40
2018-12-06T19:00:21.019Z,8.53
2018-12-06T19:02:50.848Z,6.30
2018-12-06T19:05:34.959Z,5.47
2018-12-06T19:08:05.607Z,5.50
2018-12-06T19:10:35.076Z,4.90
2018-12-06T19:13:06.576Z,4.40
2018-12-06T19:15:36.375Z,4.03
2018-12-06T19:18:06.955Z,3.90
2018-12-06T19:20:36.818Z,6.93
2018-12-06T19:23:06.645Z,4.70
2018-12-06T19:25:40.296Z,4.73
2018-12-06T19:28:10.078Z,4.53
2018-12-06T19:30:40.026Z,6.70
2018-12-06T19:33:08.679Z,7.10
2018-12-06T19:35:39.527Z,5.27
2018-12-06T19:38:09.647Z,3.37
2018-12-06T19:40:39.223Z,3.80
2018-12-06T19:43:18.967Z,8.60
2018-12-06T19:45:48.492Z,3.63
2018-12-06T19:48:18.196Z,10.40
2018-12-06T19:50:47.811Z,3.80
2018-12-06T19:53:17.859Z,4.47
2018-12-06T19:55:51.729Z,4.40
2018-12-06T19:58:21.355Z,3.40
2018-12-06T20:00:51.013Z,4.57
2018-12-06T20:03:33.153Z,4.13
2018-12-06T20:06:08.448Z,3.67
2018-12-06T20:08:38.543Z,3.83
2018-12-06T20:11:08.251Z,4.17
2018-12-06T20:13:37.765Z,3.27
2018-12-06T20:16:07.982Z,3.40
2018-12-06T20:18:41.104Z,3.70
2018-12-06T20:21:11.098Z,5.00
2018-12-06T20:23:47.142Z,3.30
2018-12-06T20:28:57.797Z,4.13
2018-12-06T20:31:28.184Z,4.50
2018-12-06T20:33:57.872Z,6.53
2018-12-06T20:39:05.187Z,6.03
2018-12-06T20:41:34.770Z,3.30
2018-12-06T20:44:04.926Z,3.40
2018-12-06T20:46:38.422Z,3.70
2018-12-06T20:49:08.353Z,3.50
2018-12-06T20:51:38.044Z,3.13
2018-12-06T20:54:12.135Z,5.37
2018-12-06T20:56:42.976Z,3.43
2018-12-06T20:59:13.755Z,3.30
2018-12-06T21:01:44.005Z,3.10
2018-12-06T21:04:14.056Z,3.27
2018-12-06T21:06:43.601Z,3.33
2018-12-06T21:09:13.156Z,5.80
2018-12-06T21:11:42.954Z,3.57
2018-12-06T21:14:12.525Z,3.57
2018-12-06T21:16:41.986Z,4.50
2018-12-06T21:19:12.238Z,3.10
2018-12-06T21:21:41.851Z,3.60
2018-12-06T21:24:11.293Z,3.20
2018-12-06T21:26:43.569Z,3.97
2018-12-06T21:29:13.040Z,3.80
2018-12-06T21:31:43.611Z,3.80
2018-12-06T21:34:13.150Z,4.13
2018-12-06T21:36:42.594Z,3.43
2018-12-06T21:39:13.622Z,3.40
2018-12-06T21:41:43.653Z,4.20
2018-12-06T21:44:14.814Z,5.00
2018-12-06T21:46:45.854Z,3.50
2018-12-06T21:49:20.500Z,5.40
2018-12-06T21:51:50.069Z,4.60
2018-12-06T21:54:19.602Z,3.07
2018-12-06T21:56:48.541Z,3.03
2018-12-06T21:59:18.409Z,4.10
2018-12-06T22:01:47.864Z,2.90
2018-12-06T22:04:23.515Z,2.40
2018-12-06T22:09:27.016Z,3.20
2018-12-06T22:11:59.137Z,3.07
2018-12-06T22:14:28.517Z,4.30
2018-12-06T22:16:57.438Z,5.10
2018-12-06T22:19:26.500Z,13.57
2018-12-06T22:21:55.999Z,16.80
2018-12-06T22:24:25.746Z,25.43
2018-12-06T22:26:54.634Z,24.47
2018-12-06T22:29:23.876Z,21.50
2018-12-06T22:31:52.691Z,22.40
2018-12-06T22:34:21.786Z,31.80
2018-12-06T22:37:03.560Z,22.50
2018-12-06T22:39:32.541Z,15.40
2018-12-06T22:42:03.821Z,10.90
2018-12-06T22:44:32.996Z,6.53
2018-12-06T22:47:06.899Z,3.87
2018-12-06T22:49:36.302Z,3.83
2018-12-06T22:52:07.344Z,5.73
2018-12-06T22:54:36.294Z,12.07
2018-12-06T22:57:05.227Z,9.90
2018-12-06T22:59:34.139Z,20.63
2018-12-06T23:02:05.609Z,14.83
2018-12-06T23:04:34.548Z,20.37
2018-12-06T23:07:03.549Z,21.03
2018-12-06T23:09:32.442Z,14.40
2018-12-06T23:12:03.043Z,9.00
2018-12-06T23:14:32.319Z,9.17
2018-12-06T23:17:01.160Z,4.20
2018-12-06T23:19:30.004Z,9.30
2018-12-06T23:21:59.323Z,3.60
2018-12-06T23:24:28.106Z,3.50
2018-12-06T23:26:56.880Z,3.60
2018-12-06T23:29:26.164Z,5.20
2018-12-06T23:34:34.733Z,4.23
2018-12-06T23:37:03.580Z,3.63
2018-12-06T23:39:32.414Z,3.87
2018-12-06T23:42:05.239Z,8.10
2018-12-06T23:44:34.892Z,3.97
2018-12-06T23:47:04.384Z,4.23
2018-12-06T23:49:33.319Z,3.80
2018-12-06T23:52:02.712Z,4.63
2018-12-06T23:54:32.956Z,3.50
2018-12-06T23:57:06.485Z,4.77
2018-12-06T23:59:35.408Z,2.90
